createdAt,value
2023-05-19T00:02:39.883Z,4.57
2023-05-19T00:05:46.156Z,4.20
2023-05-19T00:08:50.262Z,4.57
2023-05-19T00:11:52.843Z,4.20
2023-05-19T00:14:55.298Z,3.22
2023-05-19T00:17:58.154Z,3.87
2023-05-19T00:21:01.164Z,3.80
2023-05-19T00:24:03.894Z,4.15
2023-05-19T00:27:06.329Z,4.05
2023-05-19T00:30:09.110Z,4.28
2023-05-19T00:33:11.433Z,4.00
2023-05-19T00:36:13.752Z,4.20
2023-05-19T00:39:16.120Z,4.28
2023-05-19T00:42:18.483Z,4.22
2023-05-19T00:45:20.831Z,4.38
2023-05-19T00:48:25.024Z,4.47
2023-05-19T00:51:29.679Z,4.68
2023-05-19T00:54:34.413Z,4.70
2023-05-19T00:57:37.868Z,4.25
2023-05-19T01:00:40.821Z,4.50
2023-05-19T01:03:44.287Z,4.63
2023-05-19T01:06:55.004Z,4.95
2023-05-19T01:09:57.909Z,5.55
2023-05-19T01:13:01.846Z,6.60
2023-05-19T01:16:25.083Z,6.90
2023-05-19T01:19:42.541Z,6.60
2023-05-19T01:23:21.587Z,8.30
2023-05-19T01:26:23.967Z,8.18
2023-05-19T01:29:30.770Z,8.23
2023-05-19T01:32:34.716Z,8.00
2023-05-19T01:35:39.620Z,7.50
2023-05-19T01:38:43.972Z,7.32
2023-05-19T01:41:47.519Z,6.95
2023-05-19T01:44:49.980Z,6.60
2023-05-19T01:47:55.591Z,6.90
2023-05-19T01:50:58.491Z,8.27
2023-05-19T01:54:01.340Z,8.13
2023-05-19T01:57:12.874Z,8.15
2023-05-19T02:00:34.209Z,8.13
2023-05-19T02:04:03.578Z,8.10
2023-05-19T02:07:18.697Z,8.00
2023-05-19T02:10:30.939Z,8.40
2023-05-19T02:13:37.908Z,8.25
2023-05-19T02:16:45.812Z,8.48
2023-05-19T02:19:49.402Z,7.82
2023-05-19T02:22:51.857Z,7.67
2023-05-19T02:25:54.188Z,7.85
2023-05-19T02:28:56.631Z,7.32
2023-05-19T02:32:02.241Z,7.25
2023-05-19T02:35:05.038Z,7.35
2023-05-19T02:38:08.910Z,7.60
2023-05-19T02:41:11.214Z,7.25
2023-05-19T02:44:13.614Z,8.02
2023-05-19T02:47:16.309Z,7.60
2023-05-19T02:50:19.643Z,8.15
2023-05-19T02:53:21.925Z,7.83
2023-05-19T02:56:24.308Z,7.45
2023-05-19T02:59:27.050Z,7.95
2023-05-19T03:02:30.847Z,8.30
2023-05-19T03:05:33.309Z,7.90
2023-05-19T03:08:36.459Z,7.57
2023-05-19T03:11:38.757Z,8.27
2023-05-19T03:14:41.303Z,8.18
2023-05-19T03:17:43.743Z,8.10
2023-05-19T03:20:46.431Z,8.10
2023-05-19T03:23:48.850Z,10.50
2023-05-19T03:26:51.775Z,10.38
2023-05-19T03:29:54.551Z,8.80
2023-05-19T03:32:57.906Z,8.07
2023-05-19T03:36:00.405Z,7.90
2023-05-19T03:39:07.822Z,7.93
2023-05-19T03:42:10.427Z,8.07
2023-05-19T03:45:12.975Z,8.13
2023-05-19T03:48:16.063Z,7.60
2023-05-19T03:51:44.940Z,8.50
2023-05-19T03:55:14.858Z,8.00
2023-05-19T03:58:17.268Z,7.10
2023-05-19T04:01:19.628Z,7.00
2023-05-19T04:04:22.021Z,7.85
2023-05-19T04:07:24.599Z,7.68
2023-05-19T04:10:27.245Z,7.70
2023-05-19T04:13:33.154Z,7.35
2023-05-19T04:16:36.069Z,7.65
2023-05-19T04:19:39.030Z,7.78
2023-05-19T04:22:41.920Z,7.70
2023-05-19T04:25:48.899Z,7.50
2023-05-19T04:28:51.561Z,7.45
2023-05-19T04:31:53.952Z,7.53
2023-05-19T04:34:58.942Z,7.80
2023-05-19T04:38:03.824Z,8.02
2023-05-19T04:41:12.236Z,7.43
2023-05-19T04:44:18.467Z,7.60
2023-05-19T04:47:28.353Z,8.15
2023-05-19T04:50:32.520Z,7.40
2023-05-19T04:53:36.730Z,6.97
2023-05-19T04:56:42.123Z,6.83
2023-05-19T04:59:44.672Z,8.20
2023-05-19T05:02:47.256Z,7.88
2023-05-19T05:05:53.462Z,7.90
2023-05-19T05:08:56.965Z,7.57
2023-05-19T05:12:02.932Z,7.00
2023-05-19T05:15:07.189Z,7.53
2023-05-19T05:18:10.217Z,7.32
2023-05-19T05:21:13.484Z,7.55
2023-05-19T05:24:16.673Z,7.40
2023-05-19T05:27:26.447Z,7.40
2023-05-19T05:30:28.954Z,8.05
2023-05-19T05:33:32.612Z,10.00
2023-05-19T05:36:35.257Z,8.85
2023-05-19T05:39:37.878Z,8.05
2023-05-19T05:42:40.569Z,8.47
2023-05-19T05:45:43.029Z,8.68
2023-05-19T05:48:46.312Z,9.15
2023-05-19T05:52:05.080Z,9.38
2023-05-19T05:55:14.445Z,8.50
2023-05-19T05:58:17.503Z,8.40
2023-05-19T06:01:22.219Z,8.27
2023-05-19T06:04:28.978Z,8.32
2023-05-19T06:07:32.653Z,7.97
2023-05-19T06:10:36.857Z,7.95
2023-05-19T06:13:43.751Z,6.93
2023-05-19T06:16:53.280Z,7.47
2023-05-19T06:19:56.269Z,7.80
2023-05-19T06:22:58.622Z,8.27
2023-05-19T06:26:02.723Z,7.68
2023-05-19T06:29:06.588Z,7.20
2023-05-19T06:32:10.586Z,7.47
2023-05-19T06:35:16.868Z,6.63
2023-05-19T06:38:19.543Z,7.05
2023-05-19T06:41:21.956Z,6.88
2023-05-19T06:44:26.898Z,6.57
2023-05-19T06:47:30.132Z,6.90
2023-05-19T06:50:32.769Z,6.82
2023-05-19T06:53:36.774Z,6.63
2023-05-19T06:56:45.105Z,7.32
2023-05-19T06:59:49.769Z,6.67
2023-05-19T07:02:53.712Z,6.53
2023-05-19T07:05:57.527Z,6.90
2023-05-19T07:09:00.172Z,7.53
2023-05-19T07:12:12.965Z,7.82
2023-05-19T07:15:17.208Z,7.00
2023-05-19T07:18:20.230Z,7.63
2023-05-19T07:21:22.938Z,6.45
2023-05-19T07:24:28.233Z,6.00
2023-05-19T07:27:30.725Z,6.22
2023-05-19T07:30:34.877Z,5.67
2023-05-19T07:33:38.163Z,5.10
2023-05-19T07:36:40.592Z,6.28
2023-05-19T07:39:43.032Z,5.50
2023-05-19T07:42:45.387Z,5.40
2023-05-19T07:45:48.490Z,5.07
2023-05-19T07:48:52.400Z,5.60
2023-05-19T07:51:55.261Z,5.07
2023-05-19T07:54:59.601Z,4.95
2023-05-19T07:58:04.806Z,5.03
2023-05-19T08:01:07.074Z,4.63
2023-05-19T08:04:12.678Z,3.40
2023-05-19T08:07:15.533Z,4.35
2023-05-19T08:10:18.124Z,4.15
2023-05-19T08:13:20.505Z,4.07
2023-05-19T08:16:24.894Z,4.50
2023-05-19T08:19:28.900Z,3.67
2023-05-19T08:22:31.256Z,4.05
2023-05-19T08:25:35.835Z,3.25
2023-05-19T08:28:39.322Z,4.18
2023-05-19T08:31:41.902Z,4.20
2023-05-19T08:34:45.614Z,3.60
2023-05-19T08:37:48.517Z,3.95
2023-05-19T08:40:59.432Z,4.35
2023-05-19T08:44:07.542Z,4.15
2023-05-19T08:47:13.997Z,4.43
2023-05-19T08:50:21.465Z,4.00
2023-05-19T08:53:33.850Z,4.20
2023-05-19T08:56:37.901Z,4.38
2023-05-19T08:59:43.568Z,5.78
2023-05-19T09:02:59.657Z,4.23
2023-05-19T09:06:06.392Z,3.90
2023-05-19T09:09:09.758Z,4.22
2023-05-19T09:12:13.852Z,3.72
2023-05-19T09:15:20.609Z,3.58
2023-05-19T09:18:24.892Z,3.70
2023-05-19T09:21:31.581Z,3.78
2023-05-19T09:24:34.828Z,3.50
2023-05-19T09:27:37.371Z,3.95
2023-05-19T09:30:39.831Z,3.85
2023-05-19T09:33:45.856Z,4.80
2023-05-19T09:36:53.639Z,4.00
2023-05-19T09:39:56.851Z,3.78
2023-05-19T09:42:59.165Z,4.10
2023-05-19T09:46:10.586Z,4.60
2023-05-19T09:49:16.536Z,4.00
2023-05-19T09:52:19.362Z,4.45
2023-05-19T09:55:28.863Z,4.25
2023-05-19T09:58:35.452Z,4.30
2023-05-19T10:01:41.330Z,4.28
2023-05-19T10:04:46.403Z,4.27
2023-05-19T10:07:54.927Z,4.10
2023-05-19T10:10:57.981Z,3.78
2023-05-19T10:14:00.818Z,3.72
2023-05-19T10:17:03.946Z,4.05
2023-05-19T10:20:18.676Z,3.70
2023-05-19T10:23:24.659Z,3.47
2023-05-19T10:26:31.635Z,3.70
2023-05-19T10:29:38.353Z,3.17
2023-05-19T10:32:44.814Z,3.63
2023-05-19T10:36:24.829Z,3.40
2023-05-19T10:39:35.734Z,3.45
2023-05-19T10:43:02.784Z,3.45
2023-05-19T10:46:06.548Z,3.25
2023-05-19T10:49:08.995Z,2.85
2023-05-19T10:52:31.088Z,3.47
2023-05-19T10:55:50.569Z,3.60
2023-05-19T10:58:53.151Z,3.83
2023-05-19T11:01:55.693Z,3.80
2023-05-19T11:05:09.858Z,3.75
2023-05-19T11:08:13.112Z,3.60
2023-05-19T11:11:17.083Z,3.30
2023-05-19T11:14:26.717Z,3.40
2023-05-19T11:17:29.710Z,3.33
2023-05-19T11:20:37.399Z,3.40
2023-05-19T11:23:43.442Z,3.60
2023-05-19T11:26:46.440Z,3.33
2023-05-19T11:29:49.581Z,2.78
2023-05-19T11:32:54.253Z,3.25
2023-05-19T11:35:58.608Z,3.70
2023-05-19T11:39:02.646Z,3.50
2023-05-19T11:42:05.074Z,3.40
2023-05-19T11:45:08.365Z,3.50
2023-05-19T11:48:16.046Z,3.20
2023-05-19T11:51:22.917Z,3.40
2023-05-19T11:54:31.648Z,3.60
2023-05-19T11:57:36.406Z,3.50
2023-05-19T12:00:40.844Z,4.00
2023-05-19T12:03:43.689Z,3.20
2023-05-19T12:06:49.466Z,4.15
2023-05-19T12:09:52.525Z,3.33
2023-05-19T12:12:55.612Z,3.45
2023-05-19T12:16:01.327Z,3.90
2023-05-19T12:19:06.814Z,3.47
2023-05-19T12:22:10.156Z,3.20
2023-05-19T12:25:12.768Z,3.40
2023-05-19T12:28:16.696Z,3.70
2023-05-19T12:31:20.871Z,3.20
2023-05-19T12:34:23.829Z,2.92
2023-05-19T12:37:33.332Z,3.65
2023-05-19T12:40:37.939Z,3.53
2023-05-19T12:43:41.302Z,3.67
2023-05-19T12:46:44.465Z,3.47
2023-05-19T12:49:57.314Z,3.28
2023-05-19T12:53:00.086Z,2.78
2023-05-19T12:56:12.013Z,3.20
2023-05-19T12:59:34.832Z,3.50
2023-05-19T13:03:05.615Z,3.30
2023-05-19T13:06:09.715Z,3.30
2023-05-19T13:09:21.818Z,2.90
2023-05-19T13:12:28.512Z,2.80
2023-05-19T13:15:37.861Z,2.90
2023-05-19T13:18:44.412Z,3.50
2023-05-19T13:21:51.247Z,3.00
2023-05-19T13:24:53.650Z,3.60
2023-05-19T13:27:56.839Z,3.20
2023-05-19T13:30:59.725Z,3.03
2023-05-19T13:34:02.865Z,2.88
2023-05-19T13:37:06.648Z,3.00
2023-05-19T13:40:11.566Z,2.92
2023-05-19T13:43:14.031Z,2.70
2023-05-19T13:46:16.507Z,2.97
2023-05-19T13:49:18.843Z,3.17
2023-05-19T13:52:21.900Z,2.97
2023-05-19T13:55:27.423Z,3.17
2023-05-19T13:58:30.911Z,2.73
2023-05-19T14:01:35.496Z,2.90
2023-05-19T14:04:39.147Z,3.10
2023-05-19T14:07:43.118Z,3.65
2023-05-19T14:10:48.555Z,3.03
2023-05-19T14:13:52.762Z,3.00
2023-05-19T14:16:56.202Z,2.88
2023-05-19T14:20:00.210Z,3.45
2023-05-19T14:23:03.114Z,3.17
2023-05-19T14:26:05.686Z,3.20
2023-05-19T14:29:08.678Z,3.10
2023-05-19T14:32:10.948Z,3.13
2023-05-19T14:35:13.485Z,3.17
2023-05-19T14:38:17.053Z,2.97
2023-05-19T14:41:19.374Z,3.22
2023-05-19T14:44:21.646Z,2.67
2023-05-19T14:47:26.266Z,3.00
2023-05-19T14:50:29.710Z,3.03
2023-05-19T14:53:32.160Z,2.88
2023-05-19T14:56:37.646Z,2.88
2023-05-19T14:59:40.071Z,3.07
2023-05-19T15:02:42.582Z,2.67
2023-05-19T15:05:46.002Z,2.72
2023-05-19T15:08:48.441Z,2.85
2023-05-19T15:11:50.867Z,3.05
2023-05-19T15:14:53.261Z,3.10
2023-05-19T15:17:55.896Z,3.22
2023-05-19T15:20:58.278Z,3.03
2023-05-19T15:24:01.627Z,3.03
2023-05-19T15:27:04.434Z,2.80
2023-05-19T15:30:07.281Z,3.10
2023-05-19T15:33:12.320Z,2.67
2023-05-19T15:36:16.738Z,2.80
2023-05-19T15:39:19.477Z,3.00
2023-05-19T15:42:21.767Z,3.10
2023-05-19T15:45:24.120Z,2.70
2023-05-19T15:48:28.851Z,3.08
2023-05-19T15:51:31.656Z,3.30
2023-05-19T15:54:34.848Z,3.33
2023-05-19T15:57:37.523Z,3.15
2023-05-19T16:00:39.846Z,3.20
2023-05-19T16:03:44.469Z,3.33
2023-05-19T16:06:46.947Z,3.50
2023-05-19T16:09:50.055Z,3.28
2023-05-19T16:12:55.288Z,3.10
2023-05-19T16:15:57.723Z,3.43
2023-05-19T16:19:00.178Z,3.67
2023-05-19T16:22:02.526Z,3.72
2023-05-19T16:25:05.616Z,3.10
2023-05-19T16:28:07.993Z,3.30
2023-05-19T16:31:10.364Z,3.47
2023-05-19T16:34:12.656Z,3.42
2023-05-19T16:37:16.216Z,3.67
2023-05-19T16:40:18.655Z,3.45
2023-05-19T16:43:20.982Z,3.20
2023-05-19T16:46:23.705Z,3.47
2023-05-19T16:49:26.223Z,3.10
2023-05-19T16:52:29.306Z,3.20
2023-05-19T16:55:31.785Z,3.30
2023-05-19T16:58:34.665Z,3.60
2023-05-19T17:01:37.179Z,3.30
2023-05-19T17:04:39.504Z,3.03
2023-05-19T17:07:41.836Z,3.20
2023-05-19T17:10:44.911Z,3.33
2023-05-19T17:13:47.505Z,3.22
2023-05-19T17:16:49.906Z,3.73
2023-05-19T17:19:52.389Z,3.22
2023-05-19T17:22:54.800Z,3.75
2023-05-19T17:25:57.144Z,3.97
2023-05-19T17:28:59.423Z,3.65
2023-05-19T17:32:01.747Z,3.77
2023-05-19T17:35:06.720Z,4.00
2023-05-19T17:38:10.800Z,3.63
2023-05-19T17:41:14.285Z,3.83
2023-05-19T17:44:16.783Z,4.13
2023-05-19T17:47:19.066Z,4.43
2023-05-19T17:50:21.549Z,3.45
2023-05-19T17:53:24.423Z,3.80
2023-05-19T17:56:32.424Z,4.03
2023-05-19T17:59:34.967Z,4.30
2023-05-19T18:02:38.134Z,4.30
2023-05-19T18:05:43.351Z,4.40
2023-05-19T18:08:51.567Z,4.40
2023-05-19T18:11:55.081Z,4.35
2023-05-19T18:14:57.514Z,4.95
2023-05-19T18:18:00.280Z,5.17
2023-05-19T18:21:02.823Z,5.22
2023-05-19T18:24:06.087Z,5.75
2023-05-19T18:27:08.389Z,7.47
2023-05-19T18:30:11.090Z,8.38
2023-05-19T18:33:13.517Z,7.53
2023-05-19T18:36:16.731Z,6.72
2023-05-19T18:39:19.334Z,7.13
2023-05-19T18:42:21.870Z,7.50
2023-05-19T18:45:24.189Z,7.57
2023-05-19T18:48:27.032Z,7.30
2023-05-19T18:51:30.083Z,7.47
2023-05-19T18:54:32.657Z,7.55
2023-05-19T18:57:34.943Z,8.25
2023-05-19T19:00:37.442Z,7.43
2023-05-19T19:03:39.788Z,7.43
2023-05-19T19:06:43.831Z,7.20
2023-05-19T19:09:46.322Z,7.85
2023-05-19T19:12:48.780Z,10.05
2023-05-19T19:15:51.130Z,10.95
2023-05-19T19:18:53.572Z,10.17
2023-05-19T19:21:55.988Z,9.25
2023-05-19T19:24:58.292Z,9.65
2023-05-19T19:28:01.465Z,10.50
2023-05-19T19:31:03.856Z,11.35
2023-05-19T19:34:09.186Z,10.30
2023-05-19T19:37:11.552Z,10.70
2023-05-19T19:40:14.206Z,9.90
2023-05-19T19:43:16.563Z,10.18
2023-05-19T19:46:20.258Z,11.00
2023-05-19T19:49:22.555Z,10.63
2023-05-19T19:52:25.512Z,12.68
2023-05-19T19:55:28.929Z,11.30
2023-05-19T19:58:31.317Z,10.07
2023-05-19T20:01:33.961Z,10.63
2023-05-19T20:04:36.581Z,8.57
2023-05-19T20:07:39.606Z,7.93
2023-05-19T20:10:44.010Z,7.20
2023-05-19T20:13:47.171Z,7.50
2023-05-19T20:16:49.533Z,7.63
2023-05-19T20:19:51.905Z,7.77
2023-05-19T20:22:54.213Z,7.50
2023-05-19T20:26:11.043Z,7.95
2023-05-19T20:29:14.648Z,8.73
2023-05-19T20:32:17.075Z,8.45
2023-05-19T20:35:19.406Z,8.57
2023-05-19T20:38:21.745Z,7.78
2023-05-19T20:41:24.119Z,7.78
2023-05-19T20:44:27.842Z,7.25
2023-05-19T20:47:30.719Z,6.60
2023-05-19T20:50:34.402Z,7.27
2023-05-19T20:53:38.065Z,8.30
2023-05-19T20:56:40.448Z,8.65
2023-05-19T20:59:42.751Z,7.70
2023-05-19T21:02:45.150Z,7.57
2023-05-19T21:05:47.522Z,6.97
2023-05-19T21:08:50.332Z,7.85
2023-05-19T21:11:55.749Z,7.22
2023-05-19T21:14:58.082Z,7.20
2023-05-19T21:18:00.487Z,7.57
2023-05-19T21:21:04.152Z,7.30
2023-05-19T21:24:06.617Z,8.35
2023-05-19T21:27:09.012Z,7.57
2023-05-19T21:30:12.319Z,8.02
2023-05-19T21:33:14.776Z,7.45
2023-05-19T21:36:17.254Z,7.50
2023-05-19T21:39:19.604Z,7.78
2023-05-19T21:42:21.911Z,7.50
2023-05-19T21:45:24.395Z,7.38
2023-05-19T21:48:26.754Z,7.68
2023-05-19T21:51:29.275Z,7.90
2023-05-19T21:54:31.659Z,7.78
2023-05-19T21:57:35.453Z,8.15
2023-05-19T22:00:38.346Z,7.72
2023-05-19T22:03:40.836Z,8.05
2023-05-19T22:06:43.332Z,7.40
2023-05-19T22:09:48.185Z,7.20
2023-05-19T22:12:51.185Z,7.30
2023-05-19T22:15:53.651Z,7.85
2023-05-19T22:18:56.123Z,7.50
2023-05-19T22:22:09.690Z,8.80
2023-05-19T22:25:16.107Z,7.45
2023-05-19T22:28:18.454Z,7.85
2023-05-19T22:31:21.669Z,7.80
2023-05-19T22:34:24.436Z,7.38
2023-05-19T22:37:28.999Z,7.70
2023-05-19T22:40:32.658Z,7.05
2023-05-19T22:43:35.220Z,7.43
2023-05-19T22:46:37.760Z,7.60
2023-05-19T22:49:42.887Z,7.32
2023-05-19T22:52:45.254Z,7.63
2023-05-19T22:55:47.718Z,7.82
2023-05-19T22:58:50.120Z,7.57
2023-05-19T23:01:52.485Z,7.35
2023-05-19T23:04:54.844Z,8.20
2023-05-19T23:07:57.179Z,8.53
2023-05-19T23:11:01.022Z,8.65
2023-05-19T23:14:03.364Z,8.77
2023-05-19T23:17:05.882Z,9.25
2023-05-19T23:20:08.600Z,9.10
2023-05-19T23:23:10.989Z,9.13
2023-05-19T23:26:16.085Z,8.68
2023-05-19T23:29:18.524Z,9.60
2023-05-19T23:32:20.912Z,8.75
2023-05-19T23:35:23.206Z,8.90
2023-05-19T23:38:27.095Z,8.87
2023-05-19T23:41:29.605Z,9.35
2023-05-19T23:44:31.926Z,9.60
2023-05-19T23:47:34.340Z,9.27
2023-05-19T23:50:36.737Z,9.75
2023-05-19T23:53:39.181Z,9.07
2023-05-19T23:56:42.546Z,9.10
2023-05-19T23:59:44.970Z,9.63
